createdAt,value
2018-07-31T00:02:55.277Z,61.90
2018-07-31T00:05:53.651Z,62.70
2018-07-31T00:08:51.971Z,62.70
2018-07-31T00:11:50.424Z,62.60
2018-07-31T00:14:48.654Z,61.90
2018-07-31T00:17:47.285Z,62.10
2018-07-31T00:20:45.790Z,61.70
2018-07-31T00:23:44.354Z,61.80
2018-07-31T00:26:43.204Z,62.00
2018-07-31T00:29:41.843Z,61.70
2018-07-31T00:32:40.449Z,61.60
2018-07-31T00:35:39.114Z,61.70
2018-07-31T00:38:37.394Z,61.50
2018-07-31T00:41:35.822Z,61.70
2018-07-31T00:44:34.062Z,61.90
2018-07-31T00:47:32.342Z,61.70
2018-07-31T00:50:31.017Z,61.60
2018-07-31T00:53:29.303Z,61.60
2018-07-31T00:56:27.618Z,61.50
2018-07-31T00:59:27.225Z,61.50
2018-07-31T01:02:25.736Z,61.70
2018-07-31T01:05:24.277Z,61.80
2018-07-31T01:08:23.456Z,62.00
2018-07-31T01:17:02.318Z,62.00
2018-07-31T01:20:00.711Z,62.20
2018-07-31T01:25:50.807Z,62.10
2018-07-31T01:28:49.302Z,61.50
2018-07-31T01:31:47.703Z,61.60
2018-07-31T01:34:46.152Z,61.80
2018-07-31T01:37:44.472Z,61.60
2018-07-31T01:40:43.164Z,61.90
2018-07-31T01:43:41.580Z,61.50
2018-07-31T01:46:39.943Z,61.60
2018-07-31T01:49:38.322Z,61.60
2018-07-31T01:52:36.613Z,61.50
2018-07-31T01:55:34.873Z,61.30
2018-07-31T01:58:33.130Z,61.10
2018-07-31T02:01:31.608Z,61.10
2018-07-31T02:07:20.004Z,61.60
2018-07-31T02:10:18.169Z,61.40
2018-07-31T02:13:17.287Z,61.30
2018-07-31T02:16:15.638Z,61.10
2018-07-31T02:22:04.328Z,61.20
2018-07-31T02:25:02.630Z,61.20
2018-07-31T02:28:00.879Z,61.10
2018-07-31T02:30:59.227Z,61.40
2018-07-31T02:33:57.727Z,61.10
2018-07-31T02:36:56.053Z,61.10
2018-07-31T02:39:54.679Z,61.80
2018-07-31T02:42:53.087Z,61.00
2018-07-31T02:45:51.695Z,61.10
2018-07-31T02:48:49.971Z,61.60
2018-07-31T02:51:48.336Z,61.60
2018-07-31T02:54:46.666Z,61.40
2018-07-31T02:57:45.919Z,61.20
2018-07-31T03:00:44.227Z,61.00
2018-07-31T03:03:42.594Z,60.90
2018-07-31T03:06:41.147Z,60.90
2018-07-31T03:09:39.870Z,60.90
2018-07-31T03:12:38.143Z,61.30
2018-07-31T03:15:36.518Z,61.10
2018-07-31T03:18:35.090Z,61.00
2018-07-31T03:21:33.475Z,61.00
2018-07-31T03:24:31.753Z,61.00
2018-07-31T03:27:29.975Z,61.10
2018-07-31T03:30:28.476Z,61.20
2018-07-31T03:33:26.554Z,61.00
2018-07-31T03:36:24.747Z,61.20
2018-07-31T03:39:22.738Z,61.00
2018-07-31T03:42:21.581Z,61.10
2018-07-31T03:45:19.850Z,61.10
2018-07-31T03:51:08.580Z,61.00
2018-07-31T03:54:06.835Z,61.00
2018-07-31T03:57:05.492Z,61.00
2018-07-31T04:00:03.805Z,61.00
2018-07-31T04:03:02.287Z,61.00
2018-07-31T04:06:00.674Z,61.10
2018-07-31T04:08:59.133Z,61.10
2018-07-31T04:14:48.716Z,61.00
2018-07-31T04:17:47.028Z,60.90
2018-07-31T04:20:45.247Z,61.00
2018-07-31T04:23:43.693Z,61.00
2018-07-31T04:26:42.079Z,61.80
2018-07-31T04:29:40.547Z,61.40
2018-07-31T04:32:39.022Z,61.00
2018-07-31T04:35:37.461Z,60.90
2018-07-31T04:38:36.077Z,61.70
2018-07-31T04:41:34.214Z,60.90
2018-07-31T04:44:32.419Z,60.90
2018-07-31T04:47:30.626Z,60.60
2018-07-31T04:50:29.094Z,60.50
2018-07-31T04:53:28.158Z,60.60
2018-07-31T04:56:26.703Z,60.50
2018-07-31T04:59:25.244Z,60.50
2018-07-31T05:02:23.728Z,60.40
2018-07-31T05:05:21.958Z,60.30
2018-07-31T05:08:20.453Z,60.30
2018-07-31T05:11:18.952Z,60.60
2018-07-31T05:14:17.238Z,60.90
2018-07-31T05:17:15.745Z,60.80
2018-07-31T05:20:15.047Z,60.70
2018-07-31T05:23:13.327Z,60.40
2018-07-31T05:26:11.621Z,60.50
2018-07-31T05:29:09.924Z,60.40
2018-07-31T05:32:08.524Z,60.30
2018-07-31T05:35:07.228Z,60.80
2018-07-31T05:38:05.713Z,61.10
2018-07-31T05:41:04.224Z,60.80
2018-07-31T05:44:02.843Z,60.70
2018-07-31T05:47:01.153Z,60.40
2018-07-31T05:49:59.701Z,60.90
2018-07-31T05:52:58.246Z,60.20
2018-07-31T05:55:56.943Z,60.30
2018-07-31T05:58:55.790Z,60.60
2018-07-31T06:01:54.214Z,60.60
2018-07-31T06:04:52.648Z,61.30
2018-07-31T06:07:51.043Z,60.80
2018-07-31T06:10:49.426Z,62.00
2018-07-31T06:13:47.686Z,62.20
2018-07-31T06:16:46.947Z,61.00
2018-07-31T06:19:45.406Z,61.30
2018-07-31T06:22:44.162Z,60.80
2018-07-31T06:25:42.297Z,60.70
2018-07-31T06:28:40.516Z,60.80
2018-07-31T06:31:38.728Z,60.90
2018-07-31T06:34:37.133Z,60.60
2018-07-31T06:37:35.515Z,60.80
2018-07-31T06:40:33.977Z,60.40
2018-07-31T06:43:32.445Z,60.30
2018-07-31T06:46:30.835Z,59.70
2018-07-31T06:49:29.258Z,59.80
2018-07-31T06:52:27.706Z,59.90
2018-07-31T06:55:26.156Z,59.70
2018-07-31T06:58:24.672Z,60.00
2018-07-31T07:01:23.120Z,60.20
2018-07-31T07:04:21.675Z,60.30
2018-07-31T07:07:19.953Z,60.40
2018-07-31T07:10:18.311Z,60.70
2018-07-31T07:13:16.826Z,60.70
2018-07-31T07:16:15.170Z,62.40
2018-07-31T07:19:13.391Z,61.40
2018-07-31T07:22:11.759Z,60.10
2018-07-31T07:25:11.182Z,60.70
2018-07-31T07:28:10.622Z,59.80
2018-07-31T07:31:09.152Z,58.70
2018-07-31T07:34:07.791Z,59.30
2018-07-31T07:37:06.122Z,57.00
2018-07-31T07:40:04.968Z,55.60
2018-07-31T07:43:03.450Z,54.60
2018-07-31T07:46:01.898Z,54.20
2018-07-31T07:49:00.187Z,52.80
2018-07-31T07:51:58.747Z,52.00
2018-07-31T07:54:57.305Z,50.60
2018-07-31T07:57:55.643Z,50.30
2018-07-31T08:00:54.160Z,49.90
2018-07-31T08:03:52.758Z,49.20
2018-07-31T08:06:51.147Z,48.30
2018-07-31T08:09:49.693Z,47.80
2018-07-31T08:12:48.141Z,47.10
2018-07-31T08:15:46.578Z,46.80
2018-07-31T08:18:44.744Z,46.50
2018-07-31T08:21:43.139Z,46.00
2018-07-31T08:24:41.784Z,45.90
2018-07-31T08:27:40.145Z,45.70
2018-07-31T08:30:38.458Z,45.20
2018-07-31T08:33:36.824Z,44.70
2018-07-31T08:36:35.077Z,45.00
2018-07-31T08:39:33.154Z,45.10
2018-07-31T08:42:31.606Z,45.70
2018-07-31T08:45:30.082Z,48.20
2018-07-31T08:48:28.745Z,48.50
2018-07-31T08:51:27.520Z,46.90
2018-07-31T08:54:25.802Z,46.00
2018-07-31T08:57:24.183Z,47.80
2018-07-31T09:00:23.622Z,49.30
2018-07-31T09:03:22.098Z,50.30
2018-07-31T09:06:20.553Z,51.20
2018-07-31T09:09:20.772Z,51.00
2018-07-31T09:12:19.194Z,51.40
2018-07-31T09:15:17.573Z,52.00
2018-07-31T09:18:15.982Z,52.40
2018-07-31T09:21:13.995Z,52.70
2018-07-31T09:24:12.382Z,53.20
2018-07-31T09:32:57.346Z,54.50
2018-07-31T09:35:55.898Z,54.40
2018-07-31T09:38:54.625Z,54.70
2018-07-31T09:41:53.188Z,54.40
2018-07-31T09:44:51.839Z,53.20
2018-07-31T09:47:50.042Z,52.70
2018-07-31T09:50:48.814Z,53.30
2018-07-31T09:56:37.827Z,54.30
2018-07-31T09:59:36.108Z,55.00
2018-07-31T10:02:34.287Z,54.50
2018-07-31T10:05:32.882Z,53.70
2018-07-31T10:08:32.195Z,52.90
2018-07-31T10:11:30.598Z,51.80
2018-07-31T10:14:29.222Z,50.10
2018-07-31T10:17:27.753Z,49.10
2018-07-31T10:20:26.152Z,49.60
2018-07-31T10:23:24.597Z,49.90
2018-07-31T10:26:22.922Z,49.90
2018-07-31T10:29:21.267Z,50.00
2018-07-31T10:32:19.833Z,50.10
2018-07-31T10:35:19.426Z,50.50
2018-07-31T10:38:17.532Z,50.70
2018-07-31T10:41:16.007Z,51.00
2018-07-31T10:44:14.613Z,50.90
2018-07-31T10:47:12.866Z,51.10
2018-07-31T10:50:11.595Z,51.40
2018-07-31T10:53:10.857Z,51.20
2018-07-31T10:56:09.025Z,51.50
2018-07-31T10:59:08.565Z,51.70
2018-07-31T11:02:07.969Z,51.80
2018-07-31T11:05:06.283Z,51.70
2018-07-31T11:08:04.491Z,51.00
2018-07-31T11:11:02.834Z,51.30
2018-07-31T11:14:01.511Z,50.70
2018-07-31T11:16:59.693Z,51.90
2018-07-31T11:19:58.124Z,50.80
2018-07-31T11:22:56.313Z,51.10
2018-07-31T11:25:54.758Z,50.90
2018-07-31T11:28:52.907Z,50.70
2018-07-31T11:31:51.218Z,51.00
2018-07-31T11:34:49.318Z,50.70
2018-07-31T11:37:47.784Z,50.00
2018-07-31T11:40:46.119Z,49.40
2018-07-31T11:43:44.541Z,50.30
2018-07-31T11:46:43.938Z,49.80
2018-07-31T11:49:43.675Z,50.10
2018-07-31T11:52:42.243Z,49.30
2018-07-31T11:55:40.511Z,49.30
2018-07-31T11:58:38.633Z,49.50
2018-07-31T12:01:36.948Z,48.30
2018-07-31T12:04:35.514Z,49.30
2018-07-31T12:07:34.040Z,49.40
2018-07-31T12:10:32.368Z,49.50
2018-07-31T12:13:30.985Z,49.40
2018-07-31T12:16:29.231Z,48.70
2018-07-31T12:19:27.847Z,49.10
2018-07-31T12:22:26.117Z,49.10
2018-07-31T12:25:24.627Z,48.50
2018-07-31T12:28:23.921Z,48.80
2018-07-31T12:31:22.206Z,47.20
2018-07-31T12:34:20.515Z,48.40
2018-07-31T12:37:18.964Z,48.80
2018-07-31T12:40:17.357Z,48.20
2018-07-31T12:43:15.739Z,47.40
2018-07-31T12:46:14.406Z,48.00
2018-07-31T12:49:12.826Z,48.20
2018-07-31T12:52:11.010Z,48.20
2018-07-31T12:55:09.468Z,47.90
2018-07-31T12:58:07.718Z,47.60
2018-07-31T13:01:06.206Z,48.50
2018-07-31T13:04:04.624Z,48.40
2018-07-31T13:07:03.282Z,48.30
2018-07-31T13:10:01.386Z,48.50
2018-07-31T13:12:59.840Z,48.60
2018-07-31T13:15:58.253Z,48.20
2018-07-31T13:21:47.133Z,48.80
2018-07-31T13:24:45.823Z,48.60
2018-07-31T13:27:44.377Z,48.60
2018-07-31T13:30:43.026Z,48.10
2018-07-31T13:33:41.392Z,47.50
2018-07-31T13:36:40.107Z,46.50
2018-07-31T13:39:38.566Z,46.00
2018-07-31T13:42:36.890Z,46.00
2018-07-31T13:45:35.289Z,45.00
2018-07-31T13:48:33.696Z,44.80
2018-07-31T13:51:31.876Z,43.60
2018-07-31T13:54:30.146Z,45.00
2018-07-31T13:57:28.403Z,45.20
2018-07-31T14:00:26.711Z,44.30
2018-07-31T14:03:25.319Z,44.70
2018-07-31T14:06:23.612Z,45.20
2018-07-31T14:09:23.164Z,44.90
2018-07-31T14:12:21.598Z,45.00
2018-07-31T14:15:19.951Z,44.70
2018-07-31T14:18:18.383Z,43.90
2018-07-31T14:21:16.811Z,44.70
2018-07-31T14:24:15.077Z,44.30
2018-07-31T14:27:13.274Z,43.50
2018-07-31T14:30:11.858Z,43.40
2018-07-31T14:33:10.181Z,43.00
2018-07-31T14:36:08.602Z,43.60
2018-07-31T14:39:06.898Z,43.20
2018-07-31T14:42:05.326Z,42.00
2018-07-31T14:45:03.666Z,43.00
2018-07-31T14:48:02.513Z,43.70
2018-07-31T14:51:00.742Z,42.60
2018-07-31T14:53:59.171Z,42.60
2018-07-31T14:56:57.391Z,42.50
2018-07-31T15:00:04.147Z,43.10
2018-07-31T15:03:02.766Z,42.40
2018-07-31T15:06:01.078Z,42.10
2018-07-31T15:08:59.552Z,42.30
2018-07-31T15:11:58.145Z,41.80
2018-07-31T15:14:56.593Z,41.80
2018-07-31T15:17:54.797Z,42.70
2018-07-31T15:20:53.070Z,41.80
2018-07-31T15:23:51.424Z,41.90
2018-07-31T15:26:49.944Z,42.00
2018-07-31T15:29:48.555Z,42.60
2018-07-31T15:32:47.042Z,40.60
2018-07-31T15:35:45.624Z,41.30
2018-07-31T15:38:43.844Z,42.20
2018-07-31T15:41:42.192Z,42.30
2018-07-31T15:44:40.606Z,42.80
2018-07-31T15:47:39.245Z,41.30
2018-07-31T15:50:37.599Z,41.60
2018-07-31T15:53:35.719Z,41.50
2018-07-31T15:56:34.298Z,41.10
2018-07-31T15:59:32.380Z,41.00
2018-07-31T16:02:30.599Z,41.80
2018-07-31T16:05:28.759Z,41.30
2018-07-31T16:08:27.162Z,41.40
2018-07-31T16:11:25.312Z,40.50
2018-07-31T16:14:23.839Z,40.20
2018-07-31T16:20:13.226Z,39.40
2018-07-31T16:23:11.619Z,39.00
2018-07-31T16:26:09.924Z,40.40
2018-07-31T16:29:08.169Z,40.90
2018-07-31T16:32:06.567Z,41.20
2018-07-31T16:35:05.091Z,41.00
2018-07-31T16:38:03.323Z,41.40
2018-07-31T16:41:02.674Z,41.40
2018-07-31T16:44:01.090Z,41.60
2018-07-31T16:46:59.226Z,41.40
2018-07-31T16:49:57.570Z,41.50
2018-07-31T16:52:56.128Z,42.10
2018-07-31T16:55:54.607Z,42.00
2018-07-31T16:58:53.051Z,42.40
2018-07-31T17:01:52.570Z,42.90
2018-07-31T17:04:51.150Z,43.40
2018-07-31T17:07:49.542Z,43.10
2018-07-31T17:10:48.096Z,43.00
2018-07-31T17:19:26.841Z,42.40
2018-07-31T17:22:25.215Z,42.40
2018-07-31T17:25:25.080Z,42.10
2018-07-31T17:28:23.660Z,41.90
2018-07-31T17:31:22.006Z,41.90
2018-07-31T17:34:20.348Z,41.90
2018-07-31T17:37:19.132Z,41.80
2018-07-31T17:40:17.529Z,41.60
2018-07-31T17:43:15.690Z,41.80
2018-07-31T17:46:14.072Z,41.80
2018-07-31T17:49:12.446Z,41.70
2018-07-31T17:52:11.175Z,41.80
2018-07-31T17:55:09.776Z,41.60
2018-07-31T18:00:58.536Z,41.50
2018-07-31T18:03:57.084Z,41.50
2018-07-31T18:06:55.605Z,41.30
2018-07-31T18:09:54.253Z,41.10
2018-07-31T18:12:52.843Z,41.10
2018-07-31T18:15:51.346Z,41.20
2018-07-31T18:18:49.913Z,41.40
2018-07-31T18:21:48.340Z,41.50
2018-07-31T18:24:46.638Z,41.70
2018-07-31T18:27:44.747Z,41.70
2018-07-31T18:30:43.175Z,42.40
2018-07-31T18:33:41.384Z,41.90
2018-07-31T18:36:39.813Z,41.90
2018-07-31T18:39:38.113Z,41.80
2018-07-31T18:42:36.492Z,41.80
2018-07-31T18:45:35.225Z,42.70
2018-07-31T18:48:33.572Z,42.00
2018-07-31T18:51:31.978Z,42.10
2018-07-31T18:54:30.372Z,42.00
2018-07-31T18:57:28.794Z,42.20
2018-07-31T19:00:27.257Z,42.30
2018-07-31T19:03:25.718Z,42.30
2018-07-31T19:06:24.234Z,42.20
2018-07-31T19:09:22.767Z,42.10
2018-07-31T19:12:21.351Z,42.30
2018-07-31T19:15:19.871Z,42.50
2018-07-31T19:21:09.646Z,42.70
2018-07-31T19:24:09.338Z,42.80
2018-07-31T19:27:08.095Z,43.00
2018-07-31T19:30:06.504Z,43.30
2018-07-31T19:33:04.986Z,43.40
2018-07-31T19:36:03.686Z,43.60
2018-07-31T19:39:02.044Z,43.80
2018-07-31T19:42:00.684Z,43.90
2018-07-31T19:45:01.018Z,44.10
2018-07-31T19:48:00.171Z,44.30
2018-07-31T19:50:59.403Z,44.60
2018-07-31T19:53:59.291Z,44.80
2018-07-31T19:56:57.595Z,45.00
2018-07-31T19:59:56.043Z,45.20
2018-07-31T20:02:54.637Z,45.40
2018-07-31T20:05:53.265Z,45.70
2018-07-31T20:08:52.878Z,45.80
2018-07-31T20:11:51.236Z,46.10
2018-07-31T20:14:49.495Z,46.20
2018-07-31T20:17:47.874Z,46.50
2018-07-31T20:20:46.059Z,46.60
2018-07-31T20:23:44.546Z,47.00
2018-07-31T20:26:42.713Z,47.20
2018-07-31T20:29:41.203Z,47.50
2018-07-31T20:32:39.458Z,47.90
2018-07-31T20:35:37.664Z,48.10
2018-07-31T20:38:36.087Z,48.30
2018-07-31T20:41:35.424Z,48.30
2018-07-31T20:44:33.563Z,48.30
2018-07-31T20:47:32.359Z,48.30
2018-07-31T20:50:30.780Z,48.30
2018-07-31T20:53:28.996Z,48.20
2018-07-31T20:56:27.279Z,48.50
2018-07-31T20:59:25.550Z,49.30
2018-07-31T21:02:24.010Z,48.80
2018-07-31T21:05:22.256Z,48.90
2018-07-31T21:08:20.622Z,49.10
2018-07-31T21:11:19.184Z,49.20
2018-07-31T21:14:17.790Z,49.30
2018-07-31T21:17:16.253Z,49.60
2018-07-31T21:20:14.930Z,49.60
2018-07-31T21:23:13.216Z,49.80
2018-07-31T21:26:11.686Z,49.70
2018-07-31T21:29:10.210Z,50.00
2018-07-31T21:32:08.590Z,50.10
2018-07-31T21:35:06.979Z,50.20
2018-07-31T21:38:05.322Z,50.40
2018-07-31T21:41:03.691Z,50.40
2018-07-31T21:44:03.102Z,50.60
2018-07-31T21:47:01.590Z,50.70
2018-07-31T21:52:50.235Z,50.80
2018-07-31T21:55:48.548Z,51.00
2018-07-31T21:58:46.847Z,51.00
2018-07-31T22:01:45.333Z,51.10
2018-07-31T22:04:43.538Z,51.30
2018-07-31T22:07:41.915Z,51.30
2018-07-31T22:10:40.147Z,51.30
2018-07-31T22:13:38.419Z,51.40
2018-07-31T22:16:36.731Z,51.50
2018-07-31T22:19:35.172Z,51.60
2018-07-31T22:22:33.534Z,51.60
2018-07-31T22:25:31.779Z,51.60
2018-07-31T22:28:30.017Z,51.70
2018-07-31T22:31:28.443Z,51.70
2018-07-31T22:34:27.007Z,51.80
2018-07-31T22:37:25.236Z,51.90
2018-07-31T22:40:23.563Z,52.00
2018-07-31T22:43:21.981Z,52.00
2018-07-31T22:46:20.982Z,52.20
2018-07-31T22:49:19.209Z,52.20
2018-07-31T22:52:17.492Z,52.40
2018-07-31T22:55:16.157Z,52.40
2018-07-31T22:58:14.474Z,52.40
2018-07-31T23:01:12.918Z,52.50
2018-07-31T23:04:11.608Z,52.50
2018-07-31T23:07:09.764Z,52.50
2018-07-31T23:10:12.103Z,52.70
2018-07-31T23:13:10.663Z,52.70
2018-07-31T23:16:09.149Z,52.80
2018-07-31T23:19:07.837Z,53.00
2018-07-31T23:22:06.307Z,53.10
2018-07-31T23:25:04.656Z,53.10
2018-07-31T23:28:03.051Z,53.20
2018-07-31T23:31:01.533Z,53.30
2018-07-31T23:34:00.023Z,53.40
2018-07-31T23:36:58.463Z,53.50
2018-07-31T23:39:56.600Z,53.60
2018-07-31T23:42:55.208Z,53.70
2018-07-31T23:45:53.551Z,53.70
2018-07-31T23:48:52.014Z,53.80
2018-07-31T23:51:50.675Z,53.90
2018-07-31T23:54:49.336Z,53.90
2018-07-31T23:57:47.888Z,54.00
